KHSV/HSV METAR and TAF weather

Enter ICAO airport designator
Station Type Date Time Source
KHSV METAR 2019/10/15 20:53 UTC NOAA

KHSV 152053Z 10006KT 10SM OVC022 21/17 A2994 RMK AO2 SLP134 60003 T02110167 58026


Station Type Date Time Source
KHSV Decoded METAR 2019/10/15 20:53 UTC NOAA

HUNTSVILLE INTERNATIONAL JONES FIELD, AL, United States (KHSV) 34-39N 086-47W 191M
Oct 15, 2019 - 04:53 PM EDT / 2019.10.15 2053 UTC
Wind: from the E (100 degrees) at 7 MPH (6 KT):0
Visibility: 10 mile(s):0
Sky conditions: overcast
Temperature: 70.0 F (21.1 C)
Dew Point: 62.1 F (16.7 C)
Relative Humidity: 75%
Pressure (altimeter): 29.94 in. Hg (1013 hPa)
Pressure tendency: 0.08 inches (2.6 hPa) lower than three hours ago
ob: KHSV 152053Z 10006KT 10SM OVC022 21/17 A2994 RMK AO2 SLP134 60003 T02110167 58026
cycle: 21

Station Type Date Time Source
KHSV TAF 2019/10/15 18:22 UTC NOAA

TAF KHSV 151720Z 1518/1618 17005KT P6SM OVC025
FM152200 16003KT P6SM -SHRA OVC015
FM160400 VRB03KT 4SM -SHRA BR OVC008
FM161200 33008G14KT P6SM OVC014
FM161400 35011G18KT P6SM SCT050

Example: see airport list